sensor_id;sensor_type;location;lat;lon;timestamp;pressure;altitude;pressure_sealevel;temperature;humidity
21828;BME280;11076;47.942;11.804;2022-08-01T00:03:43;94358.25;;;19.11;68.69
21828;BME280;11076;47.942;11.804;2022-08-01T00:08:45;94352.31;;;19.09;68.83
21828;BME280;11076;47.942;11.804;2022-08-01T00:13:48;94352.03;;;19.05;69.24
21828;BME280;11076;47.942;11.804;2022-08-01T00:18:51;94352.03;;;19.11;69.32
21828;BME280;11076;47.942;11.804;2022-08-01T00:23:53;94348.78;;;19.14;69.12
21828;BME280;11076;47.942;11.804;2022-08-01T00:28:56;94356.38;;;19.06;69.64
21828;BME280;11076;47.942;11.804;2022-08-01T00:33:58;94361.53;;;18.87;70.20
21828;BME280;11076;47.942;11.804;2022-08-01T00:39:01;94352.28;;;18.68;70.87
21828;BME280;11076;47.942;11.804;2022-08-01T00:44:07;94354.44;;;18.56;71.40
21828;BME280;11076;47.942;11.804;2022-08-01T00:49:09;94356.88;;;18.52;71.16
21828;BME280;11076;47.942;11.804;2022-08-01T00:54:12;94357.69;;;18.42;71.33
21828;BME280;11076;47.942;11.804;2022-08-01T00:59:16;94363.06;;;18.32;71.89
21828;BME280;11076;47.942;11.804;2022-08-01T01:04:19;94366.03;;;18.25;71.66
21828;BME280;11076;47.942;11.804;2022-08-01T01:10:20;94366.31;;;18.19;71.71
21828;BME280;11076;47.942;11.804;2022-08-01T01:15:21;94362.47;;;18.04;71.94
21828;BME280;11076;47.942;11.804;2022-08-01T01:20:32;94373.00;;;18.06;72.24
21828;BME280;11076;47.942;11.804;2022-08-01T01:25:49;94371.69;;;18.08;72.26
21828;BME280;11076;47.942;11.804;2022-08-01T01:30:55;94372.72;;;18.02;72.17
21828;BME280;11076;47.942;11.804;2022-08-01T01:36:01;94371.94;;;17.97;72.84
21828;BME280;11076;47.942;11.804;2022-08-01T01:41:06;94374.84;;;17.90;72.72
21828;BME280;11076;47.942;11.804;2022-08-01T01:46:10;94375.34;;;17.82;73.08
21828;BME280;11076;47.942;11.804;2022-08-01T01:51:15;94374.75;;;17.69;73.83
21828;BME280;11076;47.942;11.804;2022-08-01T01:56:18;94376.34;;;17.65;73.73
21828;BME280;11076;47.942;11.804;2022-08-01T02:01:23;94381.25;;;17.74;74.15
21828;BME280;11076;47.942;11.804;2022-08-01T02:06:27;94383.50;;;17.92;73.62
21828;BME280;11076;47.942;11.804;2022-08-01T02:11:31;94384.63;;;17.96;73.58
21828;BME280;11076;47.942;11.804;2022-08-01T02:16:36;94387.31;;;17.91;73.64
21828;BME280;11076;47.942;11.804;2022-08-01T02:26:53;94399.13;;;17.75;74.19
21828;BME280;11076;47.942;11.804;2022-08-01T02:32:01;94397.44;;;17.63;74.58
21828;BME280;11076;47.942;11.804;2022-08-01T02:37:04;94398.53;;;17.67;74.90
21828;BME280;11076;47.942;11.804;2022-08-01T02:42:11;94405.25;;;17.60;75.33
21828;BME280;11076;47.942;11.804;2022-08-01T02:47:16;94401.69;;;17.54;75.72
21828;BME280;11076;47.942;11.804;2022-08-01T02:52:22;94405.03;;;17.72;76.13
21828;BME280;11076;47.942;11.804;2022-08-01T02:57:26;94402.47;;;17.97;75.18
21828;BME280;11076;47.942;11.804;2022-08-01T03:02:30;94407.88;;;18.02;74.41
21828;BME280;11076;47.942;11.804;2022-08-01T03:07:34;94405.69;;;17.94;74.43
21828;BME280;11076;47.942;11.804;2022-08-01T03:12:38;94402.72;;;17.91;74.61
21828;BME280;11076;47.942;11.804;2022-08-01T03:17:43;94407.84;;;17.87;74.37
21828;BME280;11076;47.942;11.804;2022-08-01T03:22:47;94414.06;;;17.87;74.54
21828;BME280;11076;47.942;11.804;2022-08-01T03:27:56;94406.25;;;17.91;74.45
21828;BME280;11076;47.942;11.804;2022-08-01T03:33:00;94413.31;;;18.02;73.99
21828;BME280;11076;47.942;11.804;2022-08-01T03:38:03;94415.53;;;18.11;73.53
21828;BME280;11076;47.942;11.804;2022-08-01T03:43:32;94412.25;;;18.03;73.37
21828;BME280;11076;47.942;11.804;2022-08-01T03:48:41;94418.44;;;17.99;73.71
21828;BME280;11076;47.942;11.804;2022-08-01T03:53:45;94429.22;;;17.94;73.99
21828;BME280;11076;47.942;11.804;2022-08-01T03:58:50;94436.00;;;17.91;74.07
21828;BME280;11076;47.942;11.804;2022-08-01T04:03:53;94439.16;;;17.83;74.44
21828;BME280;11076;47.942;11.804;2022-08-01T04:08:56;94436.50;;;17.88;74.57
21828;BME280;11076;47.942;11.804;2022-08-01T04:13:59;94434.75;;;18.19;74.06
21828;BME280;11076;47.942;11.804;2022-08-01T04:19:02;94436.75;;;18.44;72.76
21828;BME280;11076;47.942;11.804;2022-08-01T04:24:13;94442.72;;;18.57;72.11
21828;BME280;11076;47.942;11.804;2022-08-01T04:29:19;94453.00;;;18.70;71.77
21828;BME280;11076;47.942;11.804;2022-08-01T04:34:24;94453.63;;;18.82;70.82
21828;BME280;11076;47.942;11.804;2022-08-01T04:39:29;94450.31;;;18.75;70.93
21828;BME280;11076;47.942;11.804;2022-08-01T04:44:33;94449.31;;;19.17;69.84
21828;BME280;11076;47.942;11.804;2022-08-01T04:49:36;94459.03;;;19.59;68.64
21828;BME280;11076;47.942;11.804;2022-08-01T04:54:39;94466.63;;;19.57;68.44
21828;BME280;11076;47.942;11.804;2022-08-01T04:59:43;94470.44;;;19.56;68.80
21828;BME280;11076;47.942;11.804;2022-08-01T05:04:46;94471.50;;;19.55;68.36
21828;BME280;11076;47.942;11.804;2022-08-01T05:09:48;94465.56;;;19.74;67.35
21828;BME280;11076;47.942;11.804;2022-08-01T05:14:51;94468.66;;;20.27;66.50
21828;BME280;11076;47.942;11.804;2022-08-01T05:19:53;94477.00;;;20.46;65.74
21828;BME280;11076;47.942;11.804;2022-08-01T05:24:56;94467.44;;;20.64;64.08
21828;BME280;11076;47.942;11.804;2022-08-01T05:29:58;94477.22;;;20.55;64.26
21828;BME280;11076;47.942;11.804;2022-08-01T05:35:01;94480.81;;;20.95;62.60
21828;BME280;11076;47.942;11.804;2022-08-01T05:40:05;94481.34;;;20.97;62.21
21828;BME280;11076;47.942;11.804;2022-08-01T05:45:07;94484.16;;;21.60;60.69
21828;BME280;11076;47.942;11.804;2022-08-01T05:50:10;94478.22;;;23.03;56.31
21828;BME280;11076;47.942;11.804;2022-08-01T05:55:12;94468.81;;;27.24;46.14
21828;BME280;11076;47.942;11.804;2022-08-01T06:00:15;94471.72;;;28.35;42.64
21828;BME280;11076;47.942;11.804;2022-08-01T06:05:18;94463.97;;;30.97;36.41
21828;BME280;11076;47.942;11.804;2022-08-01T06:10:20;94482.88;;;32.96;35.67
21828;BME280;11076;47.942;11.804;2022-08-01T06:15:23;94481.91;;;33.40;32.95
21828;BME280;11076;47.942;11.804;2022-08-01T06:20:25;94495.28;;;33.02;32.48
21828;BME280;11076;47.942;11.804;2022-08-01T06:25:27;94499.75;;;32.43;32.17
21828;BME280;11076;47.942;11.804;2022-08-01T06:30:30;94511.41;;;28.64;38.46
21828;BME280;11076;47.942;11.804;2022-08-01T06:35:32;94516.47;;;24.76;46.32
21828;BME280;11076;47.942;11.804;2022-08-01T06:40:35;94512.34;;;23.71;49.44
21828;BME280;11076;47.942;11.804;2022-08-01T06:45:39;94508.41;;;23.26;51.46
21828;BME280;11076;47.942;11.804;2022-08-01T06:50:42;94500.56;;;22.81;52.55
21828;BME280;11076;47.942;11.804;2022-08-01T06:55:44;94509.84;;;22.80;53.77
21828;BME280;11076;47.942;11.804;2022-08-01T07:00:46;94499.41;;;22.87;53.72
21828;BME280;11076;47.942;11.804;2022-08-01T07:05:49;94503.97;;;22.92;54.27
21828;BME280;11076;47.942;11.804;2022-08-01T07:10:51;94513.50;;;23.13;53.81
21828;BME280;11076;47.942;11.804;2022-08-01T07:15:54;94509.31;;;23.40;53.34
21828;BME280;11076;47.942;11.804;2022-08-01T07:20:56;94500.72;;;23.47;53.62
21828;BME280;11076;47.942;11.804;2022-08-01T07:25:59;94506.06;;;23.38;53.50
21828;BME280;11076;47.942;11.804;2022-08-01T07:31:03;94503.44;;;23.66;52.70
21828;BME280;11076;47.942;11.804;2022-08-01T07:36:06;94503.38;;;24.04;51.56
21828;BME280;11076;47.942;11.804;2022-08-01T07:41:09;94489.22;;;24.29;50.70
21828;BME280;11076;47.942;11.804;2022-08-01T07:46:11;94479.22;;;24.52;50.95
21828;BME280;11076;47.942;11.804;2022-08-01T07:51:14;94486.50;;;24.57;50.48
21828;BME280;11076;47.942;11.804;2022-08-01T07:56:16;94491.25;;;24.24;51.64
21828;BME280;11076;47.942;11.804;2022-08-01T08:01:19;94486.09;;;24.36;50.88
21828;BME280;11076;47.942;11.804;2022-08-01T08:06:21;94495.25;;;23.98;50.76
21828;BME280;11076;47.942;11.804;2022-08-01T08:11:24;94499.31;;;24.15;50.83
21828;BME280;11076;47.942;11.804;2022-08-01T08:16:26;94492.66;;;24.49;50.67
21828;BME280;11076;47.942;11.804;2022-08-01T08:21:29;94493.69;;;24.67;50.46
21828;BME280;11076;47.942;11.804;2022-08-01T08:26:32;94488.63;;;24.32;49.47
21828;BME280;11076;47.942;11.804;2022-08-01T08:31:34;94488.44;;;24.56;50.82
21828;BME280;11076;47.942;11.804;2022-08-01T08:36:37;94489.66;;;24.50;50.36
21828;BME280;11076;47.942;11.804;2022-08-01T08:41:40;94484.59;;;24.57;49.86
21828;BME280;11076;47.942;11.804;2022-08-01T08:46:45;94488.84;;;24.77;49.74
21828;BME280;11076;47.942;11.804;2022-08-01T08:51:49;94492.69;;;24.63;49.71
21828;BME280;11076;47.942;11.804;2022-08-01T08:56:53;94494.81;;;24.79;50.37
21828;BME280;11076;47.942;11.804;2022-08-01T09:01:57;94491.66;;;24.72;50.21
21828;BME280;11076;47.942;11.804;2022-08-01T09:06:59;94487.69;;;24.92;48.58
21828;BME280;11076;47.942;11.804;2022-08-01T09:12:02;94485.41;;;25.08;49.67
21828;BME280;11076;47.942;11.804;2022-08-01T09:17:07;94485.25;;;24.91;47.55
21828;BME280;11076;47.942;11.804;2022-08-01T09:22:16;94489.16;;;25.12;48.56
21828;BME280;11076;47.942;11.804;2022-08-01T09:27:21;94492.06;;;25.30;48.05
21828;BME280;11076;47.942;11.804;2022-08-01T09:32:26;94483.88;;;25.30;46.66
21828;BME280;11076;47.942;11.804;2022-08-01T09:37:30;94490.28;;;25.48;47.19
21828;BME280;11076;47.942;11.804;2022-08-01T09:42:33;94484.72;;;25.84;45.61
21828;BME280;11076;47.942;11.804;2022-08-01T09:47:39;94484.72;;;25.84;46.67
21828;BME280;11076;47.942;11.804;2022-08-01T09:52:53;94487.47;;;26.07;46.03
21828;BME280;11076;47.942;11.804;2022-08-01T09:57:56;94475.94;;;25.65;44.21
21828;BME280;11076;47.942;11.804;2022-08-01T10:03:19;94479.94;;;25.90;45.62
21828;BME280;11076;47.942;11.804;2022-08-01T10:08:23;94471.66;;;26.04;46.23
21828;BME280;11076;47.942;11.804;2022-08-01T10:13:28;94467.56;;;26.24;46.10
21828;BME280;11076;47.942;11.804;2022-08-01T10:18:32;94452.47;;;26.35;44.68
21828;BME280;11076;47.942;11.804;2022-08-01T10:23:37;94467.13;;;26.30;45.52
21828;BME280;11076;47.942;11.804;2022-08-01T10:28:40;94462.66;;;26.92;44.87
21828;BME280;11076;47.942;11.804;2022-08-01T10:33:47;94447.19;;;27.40;43.12
21828;BME280;11076;47.942;11.804;2022-08-01T10:38:49;94447.81;;;27.45;42.91
21828;BME280;11076;47.942;11.804;2022-08-01T10:43:52;94452.34;;;27.41;42.88
21828;BME280;11076;47.942;11.804;2022-08-01T10:49:04;94441.94;;;27.99;42.43
21828;BME280;11076;47.942;11.804;2022-08-01T10:54:10;94430.97;;;27.90;40.41
21828;BME280;11076;47.942;11.804;2022-08-01T10:59:24;94433.94;;;28.24;41.37
21828;BME280;11076;47.942;11.804;2022-08-01T11:05:07;94431.81;;;27.65;42.17
21828;BME280;11076;47.942;11.804;2022-08-01T11:10:44;94430.16;;;27.99;40.81
21828;BME280;11076;47.942;11.804;2022-08-01T11:15:46;94415.66;;;27.63;40.99
21828;BME280;11076;47.942;11.804;2022-08-01T11:20:56;94416.66;;;27.41;40.50
21828;BME280;11076;47.942;11.804;2022-08-01T11:41:17;94408.09;;;28.16;39.99
21828;BME280;11076;47.942;11.804;2022-08-01T11:51:47;94393.72;;;29.21;38.02
21828;BME280;11076;47.942;11.804;2022-08-01T11:56:50;94396.47;;;29.21;37.82
21828;BME280;11076;47.942;11.804;2022-08-01T12:01:55;94393.25;;;29.19;35.45
21828;BME280;11076;47.942;11.804;2022-08-01T12:07:11;94398.53;;;29.11;35.92
21828;BME280;11076;47.942;11.804;2022-08-01T12:12:15;94394.97;;;29.44;34.96
21828;BME280;11076;47.942;11.804;2022-08-01T12:17:20;94389.31;;;29.62;35.63
21828;BME280;11076;47.942;11.804;2022-08-01T12:22:29;94391.72;;;29.30;35.54
21828;BME280;11076;47.942;11.804;2022-08-01T12:27:31;94393.75;;;29.75;33.13
21828;BME280;11076;47.942;11.804;2022-08-01T12:32:36;94383.34;;;30.79;33.68
21828;BME280;11076;47.942;11.804;2022-08-01T12:37:43;94377.03;;;30.91;32.27
21828;BME280;11076;47.942;11.804;2022-08-01T12:42:51;94375.22;;;30.70;32.69
21828;BME280;11076;47.942;11.804;2022-08-01T12:47:54;94376.78;;;30.10;33.27
21828;BME280;11076;47.942;11.804;2022-08-01T12:53:00;94375.69;;;30.60;33.84
21828;BME280;11076;47.942;11.804;2022-08-01T12:58:08;94365.34;;;30.45;33.71
21828;BME280;11076;47.942;11.804;2022-08-01T13:03:19;94372.00;;;30.07;34.91
21828;BME280;11076;47.942;11.804;2022-08-01T13:08:24;94356.28;;;30.32;34.73
21828;BME280;11076;47.942;11.804;2022-08-01T13:13:37;94354.75;;;30.10;34.84
21828;BME280;11076;47.942;11.804;2022-08-01T13:18:40;94350.69;;;29.37;34.47
21828;BME280;11076;47.942;11.804;2022-08-01T13:24:05;94344.78;;;29.26;34.73
21828;BME280;11076;47.942;11.804;2022-08-01T13:29:18;94345.66;;;29.39;35.26
21828;BME280;11076;47.942;11.804;2022-08-01T13:34:34;94337.28;;;28.93;36.16
21828;BME280;11076;47.942;11.804;2022-08-01T13:39:37;94337.78;;;28.45;36.64
21828;BME280;11076;47.942;11.804;2022-08-01T13:44:43;94333.19;;;29.21;36.84
21828;BME280;11076;47.942;11.804;2022-08-01T13:49:47;94328.91;;;29.44;34.69
21828;BME280;11076;47.942;11.804;2022-08-01T13:54:49;94334.09;;;29.58;34.04
21828;BME280;11076;47.942;11.804;2022-08-01T13:59:52;94335.28;;;29.69;33.89
21828;BME280;11076;47.942;11.804;2022-08-01T14:04:54;94332.69;;;29.85;34.10
21828;BME280;11076;47.942;11.804;2022-08-01T14:09:57;94331.06;;;29.72;33.05
21828;BME280;11076;47.942;11.804;2022-08-01T14:15:00;94320.88;;;30.09;32.70
21828;BME280;11076;47.942;11.804;2022-08-01T14:20:02;94316.28;;;30.13;29.30
21828;BME280;11076;47.942;11.804;2022-08-01T14:25:07;94323.66;;;29.18;32.55
21828;BME280;11076;47.942;11.804;2022-08-01T14:30:11;94327.75;;;29.33;34.37
21828;BME280;11076;47.942;11.804;2022-08-01T14:35:13;94333.88;;;29.51;35.54
21828;BME280;11076;47.942;11.804;2022-08-01T14:40:16;94337.63;;;29.92;34.70
21828;BME280;11076;47.942;11.804;2022-08-01T14:45:18;94340.63;;;30.11;35.41
21828;BME280;11076;47.942;11.804;2022-08-01T14:50:21;94344.88;;;30.46;34.63
21828;BME280;11076;47.942;11.804;2022-08-01T14:55:23;94352.94;;;30.26;35.67
21828;BME280;11076;47.942;11.804;2022-08-01T15:00:28;94357.53;;;30.22;35.99
21828;BME280;11076;47.942;11.804;2022-08-01T15:05:30;94365.56;;;30.27;35.66
21828;BME280;11076;47.942;11.804;2022-08-01T15:10:34;94360.25;;;29.85;36.32
21828;BME280;11076;47.942;11.804;2022-08-01T15:15:37;94360.34;;;29.43;37.47
21828;BME280;11076;47.942;11.804;2022-08-01T15:20:39;94374.13;;;29.01;37.70
21828;BME280;11076;47.942;11.804;2022-08-01T15:25:43;94370.84;;;27.98;39.04
21828;BME280;11076;47.942;11.804;2022-08-01T15:30:46;94372.47;;;27.34;40.06
21828;BME280;11076;47.942;11.804;2022-08-01T15:35:48;94374.38;;;26.90;40.26
21828;BME280;11076;47.942;11.804;2022-08-01T15:40:51;94376.72;;;26.48;40.08
21828;BME280;11076;47.942;11.804;2022-08-01T15:45:53;94379.75;;;26.29;41.50
21828;BME280;11076;47.942;11.804;2022-08-01T15:50:56;94381.72;;;26.46;41.79
21828;BME280;11076;47.942;11.804;2022-08-01T15:55:58;94385.19;;;26.60;41.97
21828;BME280;11076;47.942;11.804;2022-08-01T16:01:01;94385.78;;;26.48;42.54
21828;BME280;11076;47.942;11.804;2022-08-01T16:06:03;94395.16;;;26.16;44.24
21828;BME280;11076;47.942;11.804;2022-08-01T16:11:06;94391.13;;;25.82;45.59
21828;BME280;11076;47.942;11.804;2022-08-01T16:16:10;94398.44;;;25.64;47.21
21828;BME280;11076;47.942;11.804;2022-08-01T16:21:12;94393.56;;;25.52;47.68
21828;BME280;11076;47.942;11.804;2022-08-01T16:26:15;94396.06;;;25.40;48.54
21828;BME280;11076;47.942;11.804;2022-08-01T16:31:18;94402.34;;;25.40;48.46
21828;BME280;11076;47.942;11.804;2022-08-01T16:36:21;94398.56;;;25.28;49.35
21828;BME280;11076;47.942;11.804;2022-08-01T16:41:23;94406.75;;;25.05;50.38
21828;BME280;11076;47.942;11.804;2022-08-01T16:46:25;94403.16;;;24.82;51.24
21828;BME280;11076;47.942;11.804;2022-08-01T16:51:28;94407.25;;;24.57;52.19
21828;BME280;11076;47.942;11.804;2022-08-01T16:56:31;94399.91;;;24.30;52.34
21828;BME280;11076;47.942;11.804;2022-08-01T17:01:33;94393.44;;;24.12;52.92
21828;BME280;11076;47.942;11.804;2022-08-01T17:06:37;94382.22;;;23.99;52.96
21828;BME280;11076;47.942;11.804;2022-08-01T17:11:39;94384.56;;;23.73;53.38
21828;BME280;11076;47.942;11.804;2022-08-01T17:16:42;94363.44;;;23.65;53.62
21828;BME280;11076;47.942;11.804;2022-08-01T17:21:44;94363.84;;;23.58;53.72
21828;BME280;11076;47.942;11.804;2022-08-01T17:26:47;94369.78;;;23.47;53.99
21828;BME280;11076;47.942;11.804;2022-08-01T17:31:49;94378.44;;;23.35;54.85
21828;BME280;11076;47.942;11.804;2022-08-01T17:36:52;94380.22;;;23.26;54.87
21828;BME280;11076;47.942;11.804;2022-08-01T17:41:54;94396.19;;;23.18;55.17
21828;BME280;11076;47.942;11.804;2022-08-01T17:46:57;94406.66;;;23.11;55.43
21828;BME280;11076;47.942;11.804;2022-08-01T17:51:59;94413.28;;;23.05;56.19
21828;BME280;11076;47.942;11.804;2022-08-01T17:57:02;94419.91;;;22.99;56.42
21828;BME280;11076;47.942;11.804;2022-08-01T18:02:04;94431.47;;;22.91;56.52
21828;BME280;11076;47.942;11.804;2022-08-01T18:07:07;94435.53;;;22.74;57.70
21828;BME280;11076;47.942;11.804;2022-08-01T18:12:10;94436.91;;;22.53;59.00
21828;BME280;11076;47.942;11.804;2022-08-01T18:17:12;94438.59;;;22.49;59.69
21828;BME280;11076;47.942;11.804;2022-08-01T18:22:15;94437.09;;;22.37;59.55
21828;BME280;11076;47.942;11.804;2022-08-01T18:27:19;94437.84;;;22.19;60.09
21828;BME280;11076;47.942;11.804;2022-08-01T18:32:22;94451.88;;;22.07;60.23
21828;BME280;11076;47.942;11.804;2022-08-01T18:37:24;94456.56;;;22.01;60.33
21828;BME280;11076;47.942;11.804;2022-08-01T18:42:27;94462.13;;;21.91;60.98
21828;BME280;11076;47.942;11.804;2022-08-01T18:47:29;94442.81;;;21.88;61.14
21828;BME280;11076;47.942;11.804;2022-08-01T18:52:31;94440.16;;;21.82;62.25
21828;BME280;11076;47.942;11.804;2022-08-01T18:57:34;94455.16;;;21.80;63.00
21828;BME280;11076;47.942;11.804;2022-08-01T19:02:38;94462.00;;;21.72;63.20
21828;BME280;11076;47.942;11.804;2022-08-01T19:07:42;94466.47;;;21.63;63.85
21828;BME280;11076;47.942;11.804;2022-08-01T19:12:56;94472.81;;;21.53;64.35
21828;BME280;11076;47.942;11.804;2022-08-01T19:17:58;94487.03;;;21.45;65.60
21828;BME280;11076;47.942;11.804;2022-08-01T19:23:01;94488.63;;;21.46;65.86
21828;BME280;11076;47.942;11.804;2022-08-01T19:28:24;94475.63;;;21.38;66.61
21828;BME280;11076;47.942;11.804;2022-08-01T19:33:29;94492.81;;;21.28;67.32
21828;BME280;11076;47.942;11.804;2022-08-01T19:38:34;94501.91;;;21.13;67.45
21828;BME280;11076;47.942;11.804;2022-08-01T19:43:37;94500.34;;;21.02;68.47
21828;BME280;11076;47.942;11.804;2022-08-01T19:48:41;94499.03;;;20.94;69.23
21828;BME280;11076;47.942;11.804;2022-08-01T19:53:49;94507.78;;;20.86;69.84
21828;BME280;11076;47.942;11.804;2022-08-01T19:58:52;94518.44;;;20.72;66.73
21828;BME280;11076;47.942;11.804;2022-08-01T20:03:55;94503.53;;;20.70;66.36
21828;BME280;11076;47.942;11.804;2022-08-01T20:08:58;94508.47;;;20.52;66.70
21828;BME280;11076;47.942;11.804;2022-08-01T20:14:01;94524.84;;;20.32;67.62
21828;BME280;11076;47.942;11.804;2022-08-01T20:19:04;94517.28;;;20.23;68.15
21828;BME280;11076;47.942;11.804;2022-08-01T20:24:09;94512.66;;;20.24;68.07
21828;BME280;11076;47.942;11.804;2022-08-01T20:29:12;94514.03;;;20.21;68.26
21828;BME280;11076;47.942;11.804;2022-08-01T20:34:20;94523.00;;;20.12;68.80
21828;BME280;11076;47.942;11.804;2022-08-01T20:39:23;94517.88;;;20.00;69.06
21828;BME280;11076;47.942;11.804;2022-08-01T20:44:27;94518.16;;;19.83;69.15
21828;BME280;11076;47.942;11.804;2022-08-01T20:49:34;94521.13;;;19.61;70.16
21828;BME280;11076;47.942;11.804;2022-08-01T20:54:37;94505.13;;;19.49;70.58
21828;BME280;11076;47.942;11.804;2022-08-01T20:59:48;94501.63;;;19.28;70.92
21828;BME280;11076;47.942;11.804;2022-08-01T21:04:54;94508.38;;;19.15;71.68
21828;BME280;11076;47.942;11.804;2022-08-01T21:10:11;94503.22;;;19.08;71.78
21828;BME280;11076;47.942;11.804;2022-08-01T21:15:28;94510.81;;;19.06;71.50
21828;BME280;11076;47.942;11.804;2022-08-01T21:20:33;94514.31;;;19.02;71.04
21828;BME280;11076;47.942;11.804;2022-08-01T21:25:40;94512.97;;;18.94;70.58
21828;BME280;11076;47.942;11.804;2022-08-01T21:30:43;94504.78;;;18.79;72.77
21828;BME280;11076;47.942;11.804;2022-08-01T21:35:46;94509.88;;;18.70;74.82
21828;BME280;11076;47.942;11.804;2022-08-01T21:40:52;94514.75;;;18.63;75.76
21828;BME280;11076;47.942;11.804;2022-08-01T21:45:55;94511.53;;;18.76;75.84
21828;BME280;11076;47.942;11.804;2022-08-01T21:51:00;94521.34;;;18.93;76.77
21828;BME280;11076;47.942;11.804;2022-08-01T21:56:06;94538.97;;;18.90;77.53
21828;BME280;11076;47.942;11.804;2022-08-01T22:06:23;94570.63;;;18.84;80.13
21828;BME280;11076;47.942;11.804;2022-08-01T22:11:28;94560.28;;;18.76;82.91
21828;BME280;11076;47.942;11.804;2022-08-01T22:16:32;94577.56;;;18.70;83.97
21828;BME280;11076;47.942;11.804;2022-08-01T22:21:36;94568.09;;;18.67;86.03
21828;BME280;11076;47.942;11.804;2022-08-01T22:26:39;94584.59;;;18.66;87.07
21828;BME280;11076;47.942;11.804;2022-08-01T22:31:42;94580.22;;;18.55;89.25
21828;BME280;11076;47.942;11.804;2022-08-01T22:36:46;94584.75;;;18.44;91.06
21828;BME280;11076;47.942;11.804;2022-08-01T22:41:55;94580.09;;;18.29;91.37
21828;BME280;11076;47.942;11.804;2022-08-01T22:47:06;94589.59;;;18.32;89.57
21828;BME280;11076;47.942;11.804;2022-08-01T22:52:22;94597.41;;;18.28;87.96
21828;BME280;11076;47.942;11.804;2022-08-01T22:57:36;94588.16;;;18.19;86.18
21828;BME280;11076;47.942;11.804;2022-08-01T23:02:45;94575.94;;;18.11;86.08
21828;BME280;11076;47.942;11.804;2022-08-01T23:07:51;94591.31;;;18.05;85.35
21828;BME280;11076;47.942;11.804;2022-08-01T23:12:54;94593.22;;;18.05;84.58
21828;BME280;11076;47.942;11.804;2022-08-01T23:17:58;94596.13;;;17.98;83.79
21828;BME280;11076;47.942;11.804;2022-08-01T23:23:03;94593.91;;;17.90;83.40
21828;BME280;11076;47.942;11.804;2022-08-01T23:28:06;94581.47;;;17.89;83.53
21828;BME280;11076;47.942;11.804;2022-08-01T23:33:09;94586.34;;;17.87;83.36
21828;BME280;11076;47.942;11.804;2022-08-01T23:38:11;94586.63;;;17.91;82.52
21828;BME280;11076;47.942;11.804;2022-08-01T23:43:17;94574.47;;;17.93;82.22
21828;BME280;11076;47.942;11.804;2022-08-01T23:48:19;94584.75;;;17.96;81.92
21828;BME280;11076;47.942;11.804;2022-08-01T23:53:21;94586.69;;;18.01;81.38
21828;BME280;11076;47.942;11.804;2022-08-01T23:58:24;94594.47;;;17.92;81.49
